sensor_id;sensor_type;location;lat;lon;timestamp;P1;durP1;ratioP1;P2;durP2;ratioP2
57023;SDS011;42916;54.346;18.562;2023-03-31T00:01:51;11.90;;;5.70;;
57023;SDS011;42916;54.346;18.562;2023-03-31T00:04:18;10.80;;;6.10;;
57023;SDS011;42916;54.346;18.562;2023-03-31T00:06:49;11.20;;;5.40;;
57023;SDS011;42916;54.346;18.562;2023-03-31T00:09:19;13.60;;;5.80;;
57023;SDS011;42916;54.346;18.562;2023-03-31T00:11:50;12.30;;;5.60;;
57023;SDS011;42916;54.346;18.562;2023-03-31T00:14:19;12.00;;;5.30;;
57023;SDS011;42916;54.346;18.562;2023-03-31T00:16:46;9.10;;;5.20;;
57023;SDS011;42916;54.346;18.562;2023-03-31T00:19:13;9.20;;;4.70;;
57023;SDS011;42916;54.346;18.562;2023-03-31T00:21:47;7.30;;;5.00;;
57023;SDS011;42916;54.346;18.562;2023-03-31T00:24:16;9.30;;;4.70;;
57023;SDS011;42916;54.346;18.562;2023-03-31T00:26:43;12.30;;;4.80;;
57023;SDS011;42916;54.346;18.562;2023-03-31T00:29:11;12.70;;;4.90;;
57023;SDS011;42916;54.346;18.562;2023-03-31T00:31:38;8.90;;;4.30;;
57023;SDS011;42916;54.346;18.562;2023-03-31T00:34:06;8.90;;;4.50;;
57023;SDS011;42916;54.346;18.562;2023-03-31T00:36:33;7.80;;;4.60;;
57023;SDS011;42916;54.346;18.562;2023-03-31T00:39:03;9.00;;;4.10;;
57023;SDS011;42916;54.346;18.562;2023-03-31T00:41:35;8.80;;;4.80;;
57023;SDS011;42916;54.346;18.562;2023-03-31T00:44:06;9.20;;;5.10;;
57023;SDS011;42916;54.346;18.562;2023-03-31T00:46:36;9.30;;;4.10;;
57023;SDS011;42916;54.346;18.562;2023-03-31T00:49:04;7.90;;;3.70;;
57023;SDS011;42916;54.346;18.562;2023-03-31T00:51:41;7.90;;;3.90;;
57023;SDS011;42916;54.346;18.562;2023-03-31T00:54:09;6.50;;;4.00;;
57023;SDS011;42916;54.346;18.562;2023-03-31T00:56:38;11.10;;;5.00;;
57023;SDS011;42916;54.346;18.562;2023-03-31T00:59:10;8.60;;;4.00;;
57023;SDS011;42916;54.346;18.562;2023-03-31T01:01:38;10.50;;;3.70;;
57023;SDS011;42916;54.346;18.562;2023-03-31T01:04:08;8.30;;;4.30;;
57023;SDS011;42916;54.346;18.562;2023-03-31T01:06:39;6.60;;;3.90;;
57023;SDS011;42916;54.346;18.562;2023-03-31T01:09:17;7.60;;;3.70;;
57023;SDS011;42916;54.346;18.562;2023-03-31T01:11:45;8.80;;;4.00;;
57023;SDS011;42916;54.346;18.562;2023-03-31T01:14:13;8.30;;;3.80;;
57023;SDS011;42916;54.346;18.562;2023-03-31T01:16:40;8.10;;;4.10;;
57023;SDS011;42916;54.346;18.562;2023-03-31T01:19:09;9.50;;;3.60;;
57023;SDS011;42916;54.346;18.562;2023-03-31T01:50:04;9.70;;;5.20;;
57023;SDS011;42916;54.346;18.562;2023-03-31T01:52:39;11.60;;;4.50;;
57023;SDS011;42916;54.346;18.562;2023-03-31T01:55:15;9.30;;;4.30;;
57023;SDS011;42916;54.346;18.562;2023-03-31T01:57:51;11.30;;;4.90;;
57023;SDS011;42916;54.346;18.562;2023-03-31T02:00:24;12.80;;;5.00;;
57023;SDS011;42916;54.346;18.562;2023-03-31T02:03:14;10.20;;;4.40;;
57023;SDS011;42916;54.346;18.562;2023-03-31T02:05:48;10.60;;;4.50;;
57023;SDS011;42916;54.346;18.562;2023-03-31T02:08:33;9.50;;;5.20;;
57023;SDS011;42916;54.346;18.562;2023-03-31T02:11:06;9.70;;;5.10;;
57023;SDS011;42916;54.346;18.562;2023-03-31T02:13:34;9.60;;;4.70;;
57023;SDS011;42916;54.346;18.562;2023-03-31T02:16:05;11.50;;;4.50;;
57023;SDS011;42916;54.346;18.562;2023-03-31T02:18:37;7.00;;;4.30;;
57023;SDS011;42916;54.346;18.562;2023-03-31T02:21:09;10.10;;;4.60;;
57023;SDS011;42916;54.346;18.562;2023-03-31T02:23:40;9.70;;;4.80;;
57023;SDS011;42916;54.346;18.562;2023-03-31T02:26:30;8.20;;;4.40;;
57023;SDS011;42916;54.346;18.562;2023-03-31T02:28:57;9.50;;;5.10;;
57023;SDS011;42916;54.346;18.562;2023-03-31T02:34:06;10.10;;;4.10;;
57023;SDS011;42916;54.346;18.562;2023-03-31T02:36:34;6.20;;;3.80;;
57023;SDS011;42916;54.346;18.562;2023-03-31T02:39:02;8.60;;;4.30;;
57023;SDS011;42916;54.346;18.562;2023-03-31T02:41:34;8.70;;;4.30;;
57023;SDS011;42916;54.346;18.562;2023-03-31T02:44:01;8.80;;;4.80;;
57023;SDS011;42916;54.346;18.562;2023-03-31T02:46:29;6.10;;;4.10;;
57023;SDS011;42916;54.346;18.562;2023-03-31T02:48:59;12.20;;;4.50;;
57023;SDS011;42916;54.346;18.562;2023-03-31T03:05:39;7.50;;;4.00;;
57023;SDS011;42916;54.346;18.562;2023-03-31T03:08:46;10.40;;;4.30;;
57023;SDS011;42916;54.346;18.562;2023-03-31T03:17:10;10.80;;;4.50;;
57023;SDS011;42916;54.346;18.562;2023-03-31T03:19:40;7.90;;;4.20;;
57023;SDS011;42916;54.346;18.562;2023-03-31T03:22:08;6.00;;;4.30;;
57023;SDS011;42916;54.346;18.562;2023-03-31T03:24:35;9.30;;;4.40;;
57023;SDS011;42916;54.346;18.562;2023-03-31T03:27:02;6.80;;;4.40;;
57023;SDS011;42916;54.346;18.562;2023-03-31T03:29:29;5.10;;;4.10;;
57023;SDS011;42916;54.346;18.562;2023-03-31T03:31:56;8.30;;;4.10;;
57023;SDS011;42916;54.346;18.562;2023-03-31T03:34:23;8.80;;;4.60;;
57023;SDS011;42916;54.346;18.562;2023-03-31T03:36:51;9.60;;;4.60;;
57023;SDS011;42916;54.346;18.562;2023-03-31T03:39:17;8.00;;;4.70;;
57023;SDS011;42916;54.346;18.562;2023-03-31T03:41:44;6.60;;;4.20;;
57023;SDS011;42916;54.346;18.562;2023-03-31T03:44:12;8.20;;;4.70;;
57023;SDS011;42916;54.346;18.562;2023-03-31T03:46:39;6.60;;;4.90;;
57023;SDS011;42916;54.346;18.562;2023-03-31T03:49:05;7.70;;;4.50;;
57023;SDS011;42916;54.346;18.562;2023-03-31T03:51:32;8.80;;;4.60;;
57023;SDS011;42916;54.346;18.562;2023-03-31T03:53:59;7.70;;;4.50;;
57023;SDS011;42916;54.346;18.562;2023-03-31T03:56:26;9.10;;;4.80;;
57023;SDS011;42916;54.346;18.562;2023-03-31T03:58:53;10.00;;;4.60;;
57023;SDS011;42916;54.346;18.562;2023-03-31T04:01:19;8.30;;;4.80;;
57023;SDS011;42916;54.346;18.562;2023-03-31T04:03:46;6.80;;;4.80;;
57023;SDS011;42916;54.346;18.562;2023-03-31T04:06:13;7.50;;;4.50;;
57023;SDS011;42916;54.346;18.562;2023-03-31T04:08:40;9.00;;;4.80;;
57023;SDS011;42916;54.346;18.562;2023-03-31T04:11:12;7.10;;;4.40;;
57023;SDS011;42916;54.346;18.562;2023-03-31T04:13:44;8.20;;;4.70;;
57023;SDS011;42916;54.346;18.562;2023-03-31T04:16:12;7.20;;;4.30;;
57023;SDS011;42916;54.346;18.562;2023-03-31T04:18:39;10.50;;;4.60;;
57023;SDS011;42916;54.346;18.562;2023-03-31T04:21:09;9.80;;;4.70;;
57023;SDS011;42916;54.346;18.562;2023-03-31T04:23:40;10.80;;;5.00;;
57023;SDS011;42916;54.346;18.562;2023-03-31T04:26:12;9.90;;;5.80;;
57023;SDS011;42916;54.346;18.562;2023-03-31T04:28:40;13.20;;;5.60;;
57023;SDS011;42916;54.346;18.562;2023-03-31T04:31:08;8.30;;;4.90;;
57023;SDS011;42916;54.346;18.562;2023-03-31T04:33:41;11.00;;;5.10;;
57023;SDS011;42916;54.346;18.562;2023-03-31T04:36:11;6.20;;;4.60;;
57023;SDS011;42916;54.346;18.562;2023-03-31T04:38:47;8.50;;;5.20;;
57023;SDS011;42916;54.346;18.562;2023-03-31T04:41:22;11.60;;;6.20;;
57023;SDS011;42916;54.346;18.562;2023-03-31T04:43:49;9.00;;;6.20;;
57023;SDS011;42916;54.346;18.562;2023-03-31T04:46:16;11.90;;;5.90;;
57023;SDS011;42916;54.346;18.562;2023-03-31T04:48:43;9.70;;;6.50;;
57023;SDS011;42916;54.346;18.562;2023-03-31T04:51:10;9.80;;;6.00;;
57023;SDS011;42916;54.346;18.562;2023-03-31T04:53:40;9.50;;;5.90;;
57023;SDS011;42916;54.346;18.562;2023-03-31T04:56:07;9.00;;;5.10;;
57023;SDS011;42916;54.346;18.562;2023-03-31T04:58:34;11.00;;;6.10;;
57023;SDS011;42916;54.346;18.562;2023-03-31T05:01:01;9.90;;;6.60;;
57023;SDS011;42916;54.346;18.562;2023-03-31T05:03:28;10.60;;;7.40;;
57023;SDS011;42916;54.346;18.562;2023-03-31T05:05:54;13.00;;;6.90;;
57023;SDS011;42916;54.346;18.562;2023-03-31T05:08:21;12.10;;;6.30;;
57023;SDS011;42916;54.346;18.562;2023-03-31T05:10:48;11.90;;;5.90;;
57023;SDS011;42916;54.346;18.562;2023-03-31T05:13:15;10.70;;;6.10;;
57023;SDS011;42916;54.346;18.562;2023-03-31T05:15:41;10.20;;;5.90;;
57023;SDS011;42916;54.346;18.562;2023-03-31T05:18:10;10.70;;;5.70;;
57023;SDS011;42916;54.346;18.562;2023-03-31T05:20:37;13.20;;;6.70;;
57023;SDS011;42916;54.346;18.562;2023-03-31T05:23:04;12.50;;;6.10;;
57023;SDS011;42916;54.346;18.562;2023-03-31T05:25:32;10.00;;;6.20;;
57023;SDS011;42916;54.346;18.562;2023-03-31T05:27:59;9.60;;;6.10;;
57023;SDS011;42916;54.346;18.562;2023-03-31T05:30:27;10.80;;;6.00;;
57023;SDS011;42916;54.346;18.562;2023-03-31T05:32:55;8.10;;;6.20;;
57023;SDS011;42916;54.346;18.562;2023-03-31T05:35:22;9.90;;;5.70;;
57023;SDS011;42916;54.346;18.562;2023-03-31T05:37:49;11.20;;;6.60;;
57023;SDS011;42916;54.346;18.562;2023-03-31T05:40:16;12.70;;;6.90;;
57023;SDS011;42916;54.346;18.562;2023-03-31T05:42:43;8.90;;;6.30;;
57023;SDS011;42916;54.346;18.562;2023-03-31T05:45:10;9.20;;;6.40;;
57023;SDS011;42916;54.346;18.562;2023-03-31T05:47:38;12.80;;;6.90;;
57023;SDS011;42916;54.346;18.562;2023-03-31T05:50:05;9.60;;;5.90;;
57023;SDS011;42916;54.346;18.562;2023-03-31T05:52:34;11.00;;;6.60;;
57023;SDS011;42916;54.346;18.562;2023-03-31T05:55:02;8.80;;;6.10;;
57023;SDS011;42916;54.346;18.562;2023-03-31T05:57:29;11.30;;;6.60;;
57023;SDS011;42916;54.346;18.562;2023-03-31T05:59:56;10.10;;;6.60;;
57023;SDS011;42916;54.346;18.562;2023-03-31T06:02:23;15.60;;;7.80;;
57023;SDS011;42916;54.346;18.562;2023-03-31T06:04:50;16.00;;;7.60;;
57023;SDS011;42916;54.346;18.562;2023-03-31T06:07:17;14.90;;;7.90;;
57023;SDS011;42916;54.346;18.562;2023-03-31T06:09:44;12.80;;;7.00;;
57023;SDS011;42916;54.346;18.562;2023-03-31T06:12:12;11.20;;;6.10;;
57023;SDS011;42916;54.346;18.562;2023-03-31T06:14:39;10.30;;;5.90;;
57023;SDS011;42916;54.346;18.562;2023-03-31T06:17:05;9.10;;;6.40;;
57023;SDS011;42916;54.346;18.562;2023-03-31T06:19:32;8.70;;;6.70;;
57023;SDS011;42916;54.346;18.562;2023-03-31T06:21:59;10.80;;;6.20;;
57023;SDS011;42916;54.346;18.562;2023-03-31T06:24:26;10.00;;;6.70;;
57023;SDS011;42916;54.346;18.562;2023-03-31T06:26:53;10.40;;;6.10;;
57023;SDS011;42916;54.346;18.562;2023-03-31T06:29:20;10.40;;;6.50;;
57023;SDS011;42916;54.346;18.562;2023-03-31T06:31:47;12.60;;;7.00;;
57023;SDS011;42916;54.346;18.562;2023-03-31T06:34:14;10.90;;;7.30;;
57023;SDS011;42916;54.346;18.562;2023-03-31T06:36:40;9.80;;;6.80;;
57023;SDS011;42916;54.346;18.562;2023-03-31T06:39:07;12.80;;;7.70;;
57023;SDS011;42916;54.346;18.562;2023-03-31T06:41:34;12.20;;;7.30;;
57023;SDS011;42916;54.346;18.562;2023-03-31T06:44:01;13.90;;;7.60;;
57023;SDS011;42916;54.346;18.562;2023-03-31T06:46:28;10.70;;;6.30;;
57023;SDS011;42916;54.346;18.562;2023-03-31T06:48:54;12.50;;;6.70;;
57023;SDS011;42916;54.346;18.562;2023-03-31T06:51:21;13.60;;;7.20;;
57023;SDS011;42916;54.346;18.562;2023-03-31T06:53:48;11.00;;;6.70;;
57023;SDS011;42916;54.346;18.562;2023-03-31T06:56:15;13.30;;;7.60;;
57023;SDS011;42916;54.346;18.562;2023-03-31T06:58:42;11.40;;;7.10;;
57023;SDS011;42916;54.346;18.562;2023-03-31T07:01:08;12.90;;;7.70;;
57023;SDS011;42916;54.346;18.562;2023-03-31T07:03:36;9.80;;;7.00;;
57023;SDS011;42916;54.346;18.562;2023-03-31T07:06:03;14.00;;;7.60;;
57023;SDS011;42916;54.346;18.562;2023-03-31T07:08:31;11.90;;;7.20;;
57023;SDS011;42916;54.346;18.562;2023-03-31T07:10:59;9.50;;;7.00;;
57023;SDS011;42916;54.346;18.562;2023-03-31T07:13:26;14.00;;;7.20;;
57023;SDS011;42916;54.346;18.562;2023-03-31T07:15:54;11.10;;;7.20;;
57023;SDS011;42916;54.346;18.562;2023-03-31T07:18:21;10.50;;;6.80;;
57023;SDS011;42916;54.346;18.562;2023-03-31T07:20:51;11.80;;;6.60;;
57023;SDS011;42916;54.346;18.562;2023-03-31T07:23:18;12.30;;;6.00;;
57023;SDS011;42916;54.346;18.562;2023-03-31T07:25:45;11.40;;;6.90;;
57023;SDS011;42916;54.346;18.562;2023-03-31T07:28:12;10.10;;;6.60;;
57023;SDS011;42916;54.346;18.562;2023-03-31T07:30:39;10.60;;;7.00;;
57023;SDS011;42916;54.346;18.562;2023-03-31T07:33:06;11.20;;;6.50;;
57023;SDS011;42916;54.346;18.562;2023-03-31T07:35:36;10.20;;;6.10;;
57023;SDS011;42916;54.346;18.562;2023-03-31T07:38:04;13.90;;;5.70;;
57023;SDS011;42916;54.346;18.562;2023-03-31T07:40:31;7.40;;;4.60;;
57023;SDS011;42916;54.346;18.562;2023-03-31T07:42:58;10.00;;;5.50;;
57023;SDS011;42916;54.346;18.562;2023-03-31T07:45:25;9.60;;;5.70;;
57023;SDS011;42916;54.346;18.562;2023-03-31T07:47:52;10.00;;;6.00;;
57023;SDS011;42916;54.346;18.562;2023-03-31T07:50:20;10.40;;;5.80;;
57023;SDS011;42916;54.346;18.562;2023-03-31T07:52:49;8.10;;;4.90;;
57023;SDS011;42916;54.346;18.562;2023-03-31T07:55:17;11.90;;;5.20;;
57023;SDS011;42916;54.346;18.562;2023-03-31T07:57:45;12.00;;;6.00;;
57023;SDS011;42916;54.346;18.562;2023-03-31T08:00:13;9.60;;;5.10;;
57023;SDS011;42916;54.346;18.562;2023-03-31T08:02:42;11.80;;;6.10;;
57023;SDS011;42916;54.346;18.562;2023-03-31T08:05:13;9.00;;;5.50;;
57023;SDS011;42916;54.346;18.562;2023-03-31T08:07:43;10.60;;;5.70;;
57023;SDS011;42916;54.346;18.562;2023-03-31T08:10:13;9.10;;;5.60;;
57023;SDS011;42916;54.346;18.562;2023-03-31T08:12:42;11.40;;;4.90;;
57023;SDS011;42916;54.346;18.562;2023-03-31T08:15:09;10.80;;;4.80;;
57023;SDS011;42916;54.346;18.562;2023-03-31T08:17:37;12.30;;;5.00;;
57023;SDS011;42916;54.346;18.562;2023-03-31T08:20:04;8.60;;;4.50;;
57023;SDS011;42916;54.346;18.562;2023-03-31T08:22:33;7.40;;;4.30;;
57023;SDS011;42916;54.346;18.562;2023-03-31T08:25:00;8.70;;;5.00;;
57023;SDS011;42916;54.346;18.562;2023-03-31T08:27:26;8.00;;;3.90;;
57023;SDS011;42916;54.346;18.562;2023-03-31T08:29:53;6.40;;;3.80;;
57023;SDS011;42916;54.346;18.562;2023-03-31T08:32:23;10.10;;;4.70;;
57023;SDS011;42916;54.346;18.562;2023-03-31T08:34:50;7.70;;;4.10;;
57023;SDS011;42916;54.346;18.562;2023-03-31T08:37:17;7.50;;;4.10;;
57023;SDS011;42916;54.346;18.562;2023-03-31T08:39:43;7.80;;;4.30;;
57023;SDS011;42916;54.346;18.562;2023-03-31T08:42:15;8.70;;;4.70;;
57023;SDS011;42916;54.346;18.562;2023-03-31T08:47:29;7.30;;;3.40;;
57023;SDS011;42916;54.346;18.562;2023-03-31T08:50:02;5.50;;;3.50;;
57023;SDS011;42916;54.346;18.562;2023-03-31T08:53:21;8.90;;;3.90;;
57023;SDS011;42916;54.346;18.562;2023-03-31T08:56:15;6.20;;;3.40;;
57023;SDS011;42916;54.346;18.562;2023-03-31T08:58:39;7.70;;;3.80;;
57023;SDS011;42916;54.346;18.562;2023-03-31T09:06:40;5.90;;;2.90;;
57023;SDS011;42916;54.346;18.562;2023-03-31T09:09:24;6.30;;;3.20;;
57023;SDS011;42916;54.346;18.562;2023-03-31T09:11:59;7.40;;;3.50;;
57023;SDS011;42916;54.346;18.562;2023-03-31T09:17:37;8.30;;;3.40;;
57023;SDS011;42916;54.346;18.562;2023-03-31T09:20:13;6.30;;;3.20;;
57023;SDS011;42916;54.346;18.562;2023-03-31T09:22:45;9.30;;;3.50;;
57023;SDS011;42916;54.346;18.562;2023-03-31T09:25:25;8.10;;;3.60;;
57023;SDS011;42916;54.346;18.562;2023-03-31T09:27:54;7.00;;;3.30;;
57023;SDS011;42916;54.346;18.562;2023-03-31T09:30:30;6.60;;;3.70;;
57023;SDS011;42916;54.346;18.562;2023-03-31T09:33:10;7.10;;;3.70;;
57023;SDS011;42916;54.346;18.562;2023-03-31T09:35:41;5.80;;;3.20;;
57023;SDS011;42916;54.346;18.562;2023-03-31T09:38:11;7.30;;;3.50;;
57023;SDS011;42916;54.346;18.562;2023-03-31T09:40:40;5.40;;;3.30;;
57023;SDS011;42916;54.346;18.562;2023-03-31T09:43:13;5.70;;;3.40;;
57023;SDS011;42916;54.346;18.562;2023-03-31T09:48:15;5.90;;;2.70;;
57023;SDS011;42916;54.346;18.562;2023-03-31T09:50:48;7.70;;;3.40;;
57023;SDS011;42916;54.346;18.562;2023-03-31T09:53:31;7.20;;;3.20;;
57023;SDS011;42916;54.346;18.562;2023-03-31T09:56:04;4.60;;;2.90;;
57023;SDS011;42916;54.346;18.562;2023-03-31T09:58:40;5.20;;;2.90;;
57023;SDS011;42916;54.346;18.562;2023-03-31T10:01:09;11.20;;;3.20;;
57023;SDS011;42916;54.346;18.562;2023-03-31T10:04:11;4.70;;;3.20;;
57023;SDS011;42916;54.346;18.562;2023-03-31T10:06:33;6.00;;;3.10;;
57023;SDS011;42916;54.346;18.562;2023-03-31T10:09:08;4.60;;;2.70;;
57023;SDS011;42916;54.346;18.562;2023-03-31T10:11:36;7.50;;;3.00;;
57023;SDS011;42916;54.346;18.562;2023-03-31T10:14:10;7.20;;;3.20;;
57023;SDS011;42916;54.346;18.562;2023-03-31T10:16:43;5.80;;;2.80;;
57023;SDS011;42916;54.346;18.562;2023-03-31T10:22:25;5.50;;;2.70;;
57023;SDS011;42916;54.346;18.562;2023-03-31T10:25:16;4.30;;;2.90;;
57023;SDS011;42916;54.346;18.562;2023-03-31T10:27:47;7.60;;;3.10;;
57023;SDS011;42916;54.346;18.562;2023-03-31T10:30:20;7.90;;;2.80;;
57023;SDS011;42916;54.346;18.562;2023-03-31T10:32:49;7.70;;;3.30;;
57023;SDS011;42916;54.346;18.562;2023-03-31T10:35:28;6.30;;;3.10;;
57023;SDS011;42916;54.346;18.562;2023-03-31T10:37:58;7.60;;;3.30;;
57023;SDS011;42916;54.346;18.562;2023-03-31T10:40:30;9.20;;;3.40;;
57023;SDS011;42916;54.346;18.562;2023-03-31T10:45:41;6.50;;;3.10;;
57023;SDS011;42916;54.346;18.562;2023-03-31T10:48:20;8.00;;;3.00;;
57023;SDS011;42916;54.346;18.562;2023-03-31T10:50:54;5.20;;;2.80;;
57023;SDS011;42916;54.346;18.562;2023-03-31T10:53:38;8.40;;;3.30;;
57023;SDS011;42916;54.346;18.562;2023-03-31T10:58:58;5.70;;;2.30;;
57023;SDS011;42916;54.346;18.562;2023-03-31T11:05:10;6.70;;;2.70;;
57023;SDS011;42916;54.346;18.562;2023-03-31T11:13:09;4.70;;;2.60;;
57023;SDS011;42916;54.346;18.562;2023-03-31T11:15:53;6.00;;;2.70;;
57023;SDS011;42916;54.346;18.562;2023-03-31T11:24:36;3.80;;;2.10;;
57023;SDS011;42916;54.346;18.562;2023-03-31T11:32:46;6.70;;;1.90;;
57023;SDS011;42916;54.346;18.562;2023-03-31T11:35:40;6.00;;;1.70;;
57023;SDS011;42916;54.346;18.562;2023-03-31T11:44:11;4.30;;;1.60;;
57023;SDS011;42916;54.346;18.562;2023-03-31T11:49:31;3.80;;;1.70;;
57023;SDS011;42916;54.346;18.562;2023-03-31T11:52:21;5.40;;;2.00;;
57023;SDS011;42916;54.346;18.562;2023-03-31T11:54:56;3.20;;;1.80;;
57023;SDS011;42916;54.346;18.562;2023-03-31T11:57:28;5.20;;;2.00;;
57023;SDS011;42916;54.346;18.562;2023-03-31T12:00:20;4.40;;;2.00;;
57023;SDS011;42916;54.346;18.562;2023-03-31T12:05:33;6.20;;;2.00;;
57023;SDS011;42916;54.346;18.562;2023-03-31T12:10:54;6.40;;;2.30;;
57023;SDS011;42916;54.346;18.562;2023-03-31T12:16:21;3.70;;;2.40;;
57023;SDS011;42916;54.346;18.562;2023-03-31T12:21:20;3.80;;;2.50;;
57023;SDS011;42916;54.346;18.562;2023-03-31T12:23:48;7.90;;;2.70;;
57023;SDS011;42916;54.346;18.562;2023-03-31T12:31:23;5.60;;;2.90;;
57023;SDS011;42916;54.346;18.562;2023-03-31T12:44:45;6.30;;;3.40;;
57023;SDS011;42916;54.346;18.562;2023-03-31T12:50:11;6.80;;;2.80;;
57023;SDS011;42916;54.346;18.562;2023-03-31T12:55:35;5.70;;;3.20;;
57023;SDS011;42916;54.346;18.562;2023-03-31T13:06:07;6.00;;;2.00;;
57023;SDS011;42916;54.346;18.562;2023-03-31T13:08:50;4.50;;;2.00;;
57023;SDS011;42916;54.346;18.562;2023-03-31T13:11:32;6.30;;;2.60;;
57023;SDS011;42916;54.346;18.562;2023-03-31T13:16:45;5.30;;;2.90;;
57023;SDS011;42916;54.346;18.562;2023-03-31T13:19:27;4.80;;;2.50;;
57023;SDS011;42916;54.346;18.562;2023-03-31T13:22:00;4.60;;;2.60;;
57023;SDS011;42916;54.346;18.562;2023-03-31T13:24:29;4.10;;;2.30;;
57023;SDS011;42916;54.346;18.562;2023-03-31T13:26:58;6.70;;;3.10;;
57023;SDS011;42916;54.346;18.562;2023-03-31T13:29:45;5.50;;;3.00;;
57023;SDS011;42916;54.346;18.562;2023-03-31T13:34:51;6.20;;;2.40;;
57023;SDS011;42916;54.346;18.562;2023-03-31T13:37:45;4.40;;;2.10;;
57023;SDS011;42916;54.346;18.562;2023-03-31T13:43:24;4.10;;;2.00;;
57023;SDS011;42916;54.346;18.562;2023-03-31T13:48:48;4.30;;;2.00;;
57023;SDS011;42916;54.346;18.562;2023-03-31T13:51:36;5.50;;;2.50;;
57023;SDS011;42916;54.346;18.562;2023-03-31T13:57:16;5.80;;;2.80;;
57023;SDS011;42916;54.346;18.562;2023-03-31T14:05:41;2.90;;;2.00;;
57023;SDS011;42916;54.346;18.562;2023-03-31T14:08:13;4.50;;;2.70;;
57023;SDS011;42916;54.346;18.562;2023-03-31T14:11:32;6.40;;;2.90;;
57023;SDS011;42916;54.346;18.562;2023-03-31T14:16:37;8.00;;;3.60;;
57023;SDS011;42916;54.346;18.562;2023-03-31T14:27:33;6.90;;;4.50;;
57023;SDS011;42916;54.346;18.562;2023-03-31T14:30:46;10.60;;;4.50;;
57023;SDS011;42916;54.346;18.562;2023-03-31T14:39:04;9.00;;;4.30;;
57023;SDS011;42916;54.346;18.562;2023-03-31T14:41:34;7.80;;;4.10;;
57023;SDS011;42916;54.346;18.562;2023-03-31T14:44:05;7.40;;;4.20;;
57023;SDS011;42916;54.346;18.562;2023-03-31T14:46:35;4.70;;;3.60;;
57023;SDS011;42916;54.346;18.562;2023-03-31T14:49:21;7.10;;;4.80;;
57023;SDS011;42916;54.346;18.562;2023-03-31T14:51:53;11.00;;;4.60;;
57023;SDS011;42916;54.346;18.562;2023-03-31T14:54:21;8.10;;;5.20;;
57023;SDS011;42916;54.346;18.562;2023-03-31T14:56:55;9.60;;;5.40;;
57023;SDS011;42916;54.346;18.562;2023-03-31T14:59:25;9.20;;;5.80;;
57023;SDS011;42916;54.346;18.562;2023-03-31T15:01:58;9.60;;;5.60;;
57023;SDS011;42916;54.346;18.562;2023-03-31T15:04:28;10.30;;;6.00;;
57023;SDS011;42916;54.346;18.562;2023-03-31T15:09:27;11.90;;;6.10;;
57023;SDS011;42916;54.346;18.562;2023-03-31T15:12:02;9.40;;;6.50;;
57023;SDS011;42916;54.346;18.562;2023-03-31T15:14:37;10.10;;;6.20;;
57023;SDS011;42916;54.346;18.562;2023-03-31T15:17:29;10.70;;;8.00;;
57023;SDS011;42916;54.346;18.562;2023-03-31T15:19:58;12.70;;;7.80;;
57023;SDS011;42916;54.346;18.562;2023-03-31T15:22:27;11.40;;;7.40;;
57023;SDS011;42916;54.346;18.562;2023-03-31T15:24:55;12.50;;;8.60;;
57023;SDS011;42916;54.346;18.562;2023-03-31T15:27:33;11.50;;;8.40;;
57023;SDS011;42916;54.346;18.562;2023-03-31T15:30:13;20.60;;;12.00;;
57023;SDS011;42916;54.346;18.562;2023-03-31T15:32:43;19.50;;;12.40;;
57023;SDS011;42916;54.346;18.562;2023-03-31T15:35:30;21.40;;;11.60;;
57023;SDS011;42916;54.346;18.562;2023-03-31T15:37:59;17.30;;;10.50;;
57023;SDS011;42916;54.346;18.562;2023-03-31T15:40:34;18.30;;;10.60;;
57023;SDS011;42916;54.346;18.562;2023-03-31T15:43:06;18.80;;;10.60;;
57023;SDS011;42916;54.346;18.562;2023-03-31T15:45:49;18.10;;;10.40;;
57023;SDS011;42916;54.346;18.562;2023-03-31T15:48:37;17.90;;;9.90;;
57023;SDS011;42916;54.346;18.562;2023-03-31T15:51:19;19.10;;;11.20;;
57023;SDS011;42916;54.346;18.562;2023-03-31T15:53:49;22.10;;;13.80;;
57023;SDS011;42916;54.346;18.562;2023-03-31T15:56:31;25.70;;;14.90;;
57023;SDS011;42916;54.346;18.562;2023-03-31T15:59:03;24.50;;;14.80;;
57023;SDS011;42916;54.346;18.562;2023-03-31T16:01:36;23.10;;;14.20;;
57023;SDS011;42916;54.346;18.562;2023-03-31T16:04:09;22.30;;;13.60;;
57023;SDS011;42916;54.346;18.562;2023-03-31T16:09:41;23.00;;;14.10;;
57023;SDS011;42916;54.346;18.562;2023-03-31T16:12:14;23.60;;;14.30;;
57023;SDS011;42916;54.346;18.562;2023-03-31T16:17:35;24.10;;;14.20;;
57023;SDS011;42916;54.346;18.562;2023-03-31T16:20:09;25.60;;;13.40;;
57023;SDS011;42916;54.346;18.562;2023-03-31T16:22:46;26.20;;;13.80;;
57023;SDS011;42916;54.346;18.562;2023-03-31T16:25:17;25.20;;;13.10;;
57023;SDS011;42916;54.346;18.562;2023-03-31T16:27:47;26.00;;;12.40;;
57023;SDS011;42916;54.346;18.562;2023-03-31T16:30:19;26.20;;;14.10;;
57023;SDS011;42916;54.346;18.562;2023-03-31T16:35:33;29.00;;;14.60;;
57023;SDS011;42916;54.346;18.562;2023-03-31T16:38:05;30.90;;;14.30;;
57023;SDS011;42916;54.346;18.562;2023-03-31T16:40:34;27.40;;;14.20;;
57023;SDS011;42916;54.346;18.562;2023-03-31T16:43:07;29.60;;;14.30;;
57023;SDS011;42916;54.346;18.562;2023-03-31T16:45:33;30.40;;;15.00;;
57023;SDS011;42916;54.346;18.562;2023-03-31T16:48:00;28.10;;;15.30;;
57023;SDS011;42916;54.346;18.562;2023-03-31T16:50:27;26.90;;;14.20;;
57023;SDS011;42916;54.346;18.562;2023-03-31T16:52:54;30.10;;;15.20;;
57023;SDS011;42916;54.346;18.562;2023-03-31T16:55:21;27.60;;;14.80;;
57023;SDS011;42916;54.346;18.562;2023-03-31T16:57:48;23.50;;;12.90;;
57023;SDS011;42916;54.346;18.562;2023-03-31T17:00:14;26.10;;;13.00;;
57023;SDS011;42916;54.346;18.562;2023-03-31T17:02:42;22.10;;;10.70;;
57023;SDS011;42916;54.346;18.562;2023-03-31T17:05:09;20.00;;;11.10;;
57023;SDS011;42916;54.346;18.562;2023-03-31T17:07:35;22.20;;;11.80;;
57023;SDS011;42916;54.346;18.562;2023-03-31T17:10:02;17.90;;;10.10;;
57023;SDS011;42916;54.346;18.562;2023-03-31T17:12:29;20.50;;;10.70;;
57023;SDS011;42916;54.346;18.562;2023-03-31T17:14:56;19.70;;;10.70;;
57023;SDS011;42916;54.346;18.562;2023-03-31T17:17:23;19.70;;;8.90;;
57023;SDS011;42916;54.346;18.562;2023-03-31T17:19:50;18.60;;;9.90;;
57023;SDS011;42916;54.346;18.562;2023-03-31T17:22:18;20.20;;;9.90;;
57023;SDS011;42916;54.346;18.562;2023-03-31T17:24:45;18.90;;;10.00;;
57023;SDS011;42916;54.346;18.562;2023-03-31T17:27:11;20.30;;;9.40;;
57023;SDS011;42916;54.346;18.562;2023-03-31T17:29:39;21.00;;;9.90;;
57023;SDS011;42916;54.346;18.562;2023-03-31T17:32:06;24.30;;;10.70;;
57023;SDS011;42916;54.346;18.562;2023-03-31T17:34:32;19.70;;;9.60;;
57023;SDS011;42916;54.346;18.562;2023-03-31T17:36:59;21.00;;;9.10;;
57023;SDS011;42916;54.346;18.562;2023-03-31T17:39:26;21.60;;;10.30;;
57023;SDS011;42916;54.346;18.562;2023-03-31T17:41:53;21.60;;;10.50;;
57023;SDS011;42916;54.346;18.562;2023-03-31T17:44:20;20.20;;;9.90;;
57023;SDS011;42916;54.346;18.562;2023-03-31T17:46:47;20.70;;;9.70;;
57023;SDS011;42916;54.346;18.562;2023-03-31T17:49:14;20.00;;;9.20;;
57023;SDS011;42916;54.346;18.562;2023-03-31T17:51:42;21.30;;;8.80;;
57023;SDS011;42916;54.346;18.562;2023-03-31T17:54:09;23.00;;;9.40;;
57023;SDS011;42916;54.346;18.562;2023-03-31T17:56:36;23.40;;;10.20;;
57023;SDS011;42916;54.346;18.562;2023-03-31T17:59:03;26.20;;;11.00;;
57023;SDS011;42916;54.346;18.562;2023-03-31T18:01:30;25.30;;;10.10;;